createdAt,value
2022-11-02T00:01:03.035Z,8.47
2022-11-02T00:03:30.814Z,8.72
2022-11-02T00:05:58.573Z,8.74
2022-11-02T00:08:26.328Z,8.65
2022-11-02T00:10:54.138Z,8.65
2022-11-02T00:13:23.297Z,8.63
2022-11-02T00:15:51.211Z,8.45
2022-11-02T00:18:19.130Z,8.50
2022-11-02T00:20:47.066Z,8.44
2022-11-02T00:23:15.988Z,8.49
2022-11-02T00:25:47.981Z,8.48
2022-11-02T00:28:16.672Z,8.43
2022-11-02T00:30:46.070Z,8.65
2022-11-02T00:33:13.842Z,8.65
2022-11-02T00:35:42.611Z,8.55
2022-11-02T00:38:10.426Z,8.80
2022-11-02T00:40:38.254Z,8.37
2022-11-02T00:43:07.168Z,8.49
2022-11-02T00:45:35.150Z,8.39
2022-11-02T00:48:05.514Z,8.26
2022-11-02T00:50:33.906Z,8.29
2022-11-02T00:53:01.901Z,8.52
2022-11-02T00:55:29.808Z,8.57
2022-11-02T00:58:02.904Z,8.75
2022-11-02T01:00:31.054Z,8.48
2022-11-02T01:03:00.897Z,8.65
2022-11-02T01:05:30.512Z,8.53
2022-11-02T01:07:58.339Z,8.62
2022-11-02T01:10:27.461Z,8.43
2022-11-02T01:12:55.287Z,8.18
2022-11-02T01:15:23.388Z,8.37
2022-11-02T01:17:51.250Z,8.27
2022-11-02T01:20:19.213Z,8.39
2022-11-02T01:22:48.399Z,8.49
2022-11-02T01:25:16.332Z,8.52
2022-11-02T01:27:44.106Z,8.58
2022-11-02T01:30:13.717Z,8.56
2022-11-02T01:32:41.488Z,8.77
2022-11-02T01:35:10.360Z,8.81
2022-11-02T01:37:39.683Z,8.77
2022-11-02T01:40:12.206Z,8.72
2022-11-02T01:42:40.048Z,8.66
2022-11-02T01:45:08.602Z,8.55
2022-11-02T01:47:39.785Z,8.78
2022-11-02T01:50:11.311Z,8.85
2022-11-02T01:52:40.495Z,8.90
2022-11-02T01:55:14.813Z,8.94
2022-11-02T01:57:46.619Z,8.82
2022-11-02T02:00:16.696Z,8.88
2022-11-02T02:02:50.300Z,8.95
2022-11-02T02:05:20.511Z,8.93
2022-11-02T02:07:49.031Z,9.05
2022-11-02T02:10:18.917Z,9.08
2022-11-02T02:12:47.469Z,8.96
2022-11-02T02:15:18.805Z,9.00
2022-11-02T02:17:54.584Z,9.07
2022-11-02T02:20:39.848Z,9.10
2022-11-02T02:23:40.313Z,9.09
2022-11-02T02:26:52.953Z,9.12
2022-11-02T02:29:24.381Z,9.07
2022-11-02T02:31:59.104Z,9.19
2022-11-02T02:34:32.373Z,9.21
2022-11-02T02:37:06.897Z,9.29
2022-11-02T02:39:43.469Z,9.24
2022-11-02T02:42:19.869Z,9.23
2022-11-02T02:44:55.707Z,9.11
2022-11-02T02:47:28.901Z,9.19
2022-11-02T02:50:05.056Z,9.05
2022-11-02T02:52:37.527Z,9.05
2022-11-02T02:55:08.077Z,9.00
2022-11-02T02:57:37.363Z,9.20
2022-11-02T03:00:14.444Z,9.44
2022-11-02T03:02:44.919Z,9.15
2022-11-02T03:05:24.500Z,9.13
2022-11-02T03:07:52.694Z,8.97
2022-11-02T03:10:23.629Z,8.93
2022-11-02T03:13:10.132Z,8.73
2022-11-02T03:15:43.809Z,8.85
2022-11-02T03:18:24.743Z,9.23
2022-11-02T03:21:04.436Z,9.46
2022-11-02T03:23:37.906Z,9.51
2022-11-02T03:26:11.006Z,9.37
2022-11-02T03:28:56.198Z,9.47
2022-11-02T03:31:35.689Z,9.48
2022-11-02T03:34:14.521Z,9.44
2022-11-02T03:36:48.078Z,9.41
2022-11-02T03:39:20.128Z,9.24
2022-11-02T03:41:52.249Z,8.99
2022-11-02T03:44:24.667Z,9.00
2022-11-02T03:47:00.160Z,9.11
2022-11-02T03:49:31.102Z,9.19
2022-11-02T03:52:06.038Z,9.08
2022-11-02T03:54:44.219Z,8.93
2022-11-02T03:57:18.398Z,8.90
2022-11-02T03:59:46.258Z,8.90
2022-11-02T04:02:16.765Z,9.32
2022-11-02T04:04:52.437Z,9.30
2022-11-02T04:07:53.243Z,9.50
2022-11-02T04:10:22.532Z,9.72
2022-11-02T04:13:08.129Z,9.66
2022-11-02T04:15:35.998Z,9.63
2022-11-02T04:18:22.972Z,9.52
2022-11-02T04:20:51.185Z,9.39
2022-11-02T04:23:36.445Z,9.58
2022-11-02T04:26:06.734Z,9.65
2022-11-02T04:28:39.293Z,9.60
2022-11-02T04:31:07.112Z,9.44
2022-11-02T04:33:40.594Z,9.52
2022-11-02T04:36:14.804Z,9.77
2022-11-02T04:38:42.556Z,9.35
2022-11-02T04:41:40.531Z,9.18
2022-11-02T04:44:34.209Z,9.21
2022-11-02T04:47:09.609Z,9.10
2022-11-02T04:49:38.759Z,9.23
2022-11-02T04:52:10.985Z,9.22
2022-11-02T04:54:44.037Z,9.18
2022-11-02T04:57:11.954Z,9.23
2022-11-02T04:59:39.868Z,9.32
2022-11-02T05:02:09.242Z,9.36
2022-11-02T05:04:38.646Z,9.20
2022-11-02T05:07:08.595Z,9.31
2022-11-02T05:09:37.646Z,9.25
2022-11-02T05:12:06.796Z,9.19
2022-11-02T05:14:35.199Z,9.25
2022-11-02T05:17:03.993Z,9.09
2022-11-02T05:19:32.663Z,9.03
2022-11-02T05:22:03.589Z,9.01
2022-11-02T05:24:32.169Z,9.37
2022-11-02T05:27:00.971Z,9.43
2022-11-02T05:29:30.013Z,9.27
2022-11-02T05:31:59.023Z,9.42
2022-11-02T05:34:27.706Z,9.42
2022-11-02T05:36:55.607Z,9.32
2022-11-02T05:39:24.937Z,9.23
2022-11-02T05:41:53.523Z,9.52
2022-11-02T05:44:22.232Z,9.28
2022-11-02T05:46:50.168Z,9.22
2022-11-02T05:49:18.001Z,9.38
2022-11-02T05:51:45.905Z,9.04
2022-11-02T05:54:13.707Z,9.20
2022-11-02T05:56:45.351Z,9.32
2022-11-02T05:59:13.274Z,9.30
2022-11-02T06:01:41.347Z,9.30
2022-11-02T06:04:09.418Z,9.22
2022-11-02T06:06:37.381Z,9.39
2022-11-02T06:09:07.306Z,9.33
2022-11-02T06:11:35.519Z,9.42
2022-11-02T06:14:04.938Z,9.54
2022-11-02T06:16:32.776Z,9.69
2022-11-02T06:19:00.655Z,9.69
2022-11-02T06:21:29.028Z,9.54
2022-11-02T06:23:58.949Z,9.72
2022-11-02T06:26:26.808Z,9.72
2022-11-02T06:28:54.960Z,9.90
2022-11-02T06:31:24.292Z,9.88
2022-11-02T06:33:52.129Z,9.93
2022-11-02T06:36:20.026Z,10.14
2022-11-02T06:38:47.877Z,10.04
2022-11-02T06:41:15.870Z,10.27
2022-11-02T06:43:43.688Z,10.44
2022-11-02T06:46:11.593Z,10.41
2022-11-02T06:48:41.194Z,10.58
2022-11-02T06:51:09.023Z,10.63
2022-11-02T06:53:36.835Z,10.57
2022-11-02T06:56:04.810Z,10.69
2022-11-02T06:58:32.722Z,10.76
2022-11-02T07:01:02.412Z,10.90
2022-11-02T07:03:31.297Z,10.88
2022-11-02T07:06:00.836Z,10.86
2022-11-02T07:08:29.563Z,10.93
2022-11-02T07:10:58.090Z,11.01
2022-11-02T07:13:26.305Z,11.02
2022-11-02T07:15:54.550Z,11.01
2022-11-02T07:18:22.551Z,11.02
2022-11-02T07:20:50.462Z,11.11
2022-11-02T07:23:23.593Z,11.07
2022-11-02T07:25:51.424Z,11.19
2022-11-02T07:28:19.675Z,11.30
2022-11-02T07:30:47.767Z,11.38
2022-11-02T07:33:15.661Z,11.26
2022-11-02T07:35:46.773Z,11.35
2022-11-02T07:38:15.060Z,11.32
2022-11-02T07:40:44.320Z,11.40
2022-11-02T07:43:12.557Z,11.31
2022-11-02T07:45:53.314Z,11.38
2022-11-02T07:48:21.325Z,11.31
2022-11-02T07:50:49.570Z,11.47
2022-11-02T07:53:17.349Z,11.61
2022-11-02T07:55:46.537Z,11.47
2022-11-02T07:58:14.813Z,11.53
2022-11-02T08:00:43.677Z,11.49
2022-11-02T08:03:19.980Z,11.54
2022-11-02T08:05:54.846Z,11.56
2022-11-02T08:08:25.342Z,11.69
2022-11-02T08:10:54.368Z,11.69
2022-11-02T08:13:23.804Z,11.81
2022-11-02T08:15:52.938Z,11.93
2022-11-02T08:18:22.579Z,11.98
2022-11-02T08:20:50.713Z,12.00
2022-11-02T08:23:20.836Z,11.90
2022-11-02T08:25:50.582Z,11.91
2022-11-02T08:28:22.170Z,12.04
2022-11-02T08:30:50.001Z,12.00
2022-11-02T08:33:19.065Z,12.02
2022-11-02T08:35:48.237Z,12.17
2022-11-02T08:38:16.214Z,12.19
2022-11-02T08:40:45.921Z,12.08
2022-11-02T08:43:15.602Z,12.10
2022-11-02T08:48:33.850Z,12.40
2022-11-02T08:51:02.711Z,12.35
2022-11-02T08:53:30.629Z,12.41
2022-11-02T08:55:59.167Z,12.68
2022-11-02T08:58:27.457Z,13.07
2022-11-02T09:00:57.081Z,13.00
2022-11-02T09:03:27.260Z,13.17
2022-11-02T09:05:59.099Z,13.20
2022-11-02T09:08:27.940Z,13.05
2022-11-02T09:11:00.096Z,12.99
2022-11-02T09:13:28.507Z,12.81
2022-11-02T09:15:59.353Z,13.02
2022-11-02T09:18:27.863Z,13.20
2022-11-02T09:20:56.074Z,13.42
2022-11-02T09:23:23.922Z,13.30
2022-11-02T09:25:51.982Z,13.00
2022-11-02T09:28:19.847Z,13.17
2022-11-02T09:30:48.080Z,13.29
2022-11-02T09:33:17.316Z,13.29
2022-11-02T09:35:46.661Z,13.34
2022-11-02T09:38:16.038Z,13.24
2022-11-02T09:40:47.600Z,13.28
2022-11-02T09:43:29.462Z,13.27
2022-11-02T09:46:03.526Z,13.43
2022-11-02T09:48:37.704Z,13.32
2022-11-02T09:51:09.083Z,13.14
2022-11-02T09:53:45.929Z,13.16
2022-11-02T09:56:16.871Z,13.17
2022-11-02T09:58:48.697Z,13.29
2022-11-02T10:01:30.154Z,13.20
2022-11-02T10:04:29.317Z,13.15
2022-11-02T10:07:07.105Z,13.25
2022-11-02T10:09:53.869Z,12.92
2022-11-02T10:12:28.224Z,13.14
2022-11-02T10:15:04.293Z,13.25
2022-11-02T10:17:38.029Z,13.37
2022-11-02T10:20:24.121Z,13.38
2022-11-02T10:22:57.266Z,13.54
2022-11-02T10:25:26.118Z,13.69
2022-11-02T10:28:05.360Z,13.93
2022-11-02T10:30:37.298Z,14.18
2022-11-02T10:33:14.339Z,14.24
2022-11-02T10:38:52.549Z,14.68
2022-11-02T10:41:45.940Z,14.38
2022-11-02T10:44:28.476Z,14.47
2022-11-02T10:47:06.474Z,14.41
2022-11-02T10:50:12.235Z,14.60
2022-11-02T10:52:45.329Z,14.86
2022-11-02T10:55:23.980Z,15.00
2022-11-02T10:57:55.960Z,15.10
2022-11-02T11:00:39.359Z,15.07
2022-11-02T11:03:13.061Z,15.51
2022-11-02T11:05:57.352Z,15.75
2022-11-02T11:08:32.326Z,15.68
2022-11-02T11:11:16.757Z,15.92
2022-11-02T11:16:41.809Z,15.51
2022-11-02T11:22:06.495Z,15.88
2022-11-02T11:24:36.517Z,16.00
2022-11-02T11:27:19.021Z,16.16
2022-11-02T11:29:49.912Z,16.07
2022-11-02T11:32:20.500Z,15.93
2022-11-02T11:34:51.873Z,15.96
2022-11-02T11:37:19.740Z,16.59
2022-11-02T11:39:54.923Z,16.30
2022-11-02T11:42:25.652Z,16.81
2022-11-02T11:44:57.735Z,16.12
2022-11-02T11:47:28.670Z,16.05
2022-11-02T11:50:15.775Z,16.23
2022-11-02T11:52:46.120Z,16.30
2022-11-02T11:55:26.423Z,16.60
2022-11-02T11:58:16.182Z,16.51
2022-11-02T12:00:44.808Z,16.23
2022-11-02T12:03:16.306Z,16.23
2022-11-02T12:05:58.436Z,16.82
2022-11-02T12:08:39.505Z,16.78
2022-11-02T12:11:32.468Z,16.69
2022-11-02T12:14:14.645Z,16.35
2022-11-02T12:17:02.092Z,16.51
2022-11-02T12:19:45.503Z,16.81
2022-11-02T12:22:20.603Z,16.81
2022-11-02T12:25:06.062Z,16.78
2022-11-02T12:27:41.653Z,16.94
2022-11-02T12:30:16.357Z,17.31
2022-11-02T12:33:05.199Z,16.95
2022-11-02T12:35:59.052Z,16.99
2022-11-02T12:38:53.976Z,16.56
2022-11-02T12:41:36.645Z,17.05
2022-11-02T12:44:20.918Z,16.70
2022-11-02T12:46:58.611Z,16.79
2022-11-02T12:49:41.771Z,16.90
2022-11-02T12:52:22.940Z,17.00
2022-11-02T12:54:55.073Z,17.54
2022-11-02T12:57:25.330Z,17.10
2022-11-02T13:00:00.296Z,17.17
2022-11-02T13:02:32.742Z,16.91
2022-11-02T13:05:06.823Z,16.53
2022-11-02T13:07:40.790Z,16.35
2022-11-02T13:10:16.462Z,16.91
2022-11-02T13:12:45.792Z,16.96
2022-11-02T13:15:18.676Z,17.24
2022-11-02T13:17:50.274Z,17.06
2022-11-02T13:20:22.510Z,17.12
2022-11-02T13:22:57.800Z,17.52
2022-11-02T13:25:29.705Z,17.77
2022-11-02T13:28:05.400Z,17.96
2022-11-02T13:30:36.129Z,17.65
2022-11-02T13:33:09.697Z,17.26
2022-11-02T13:35:40.945Z,17.43
2022-11-02T13:38:24.712Z,17.59
2022-11-02T13:41:06.563Z,17.17
2022-11-02T13:43:56.984Z,17.09
2022-11-02T13:46:46.919Z,17.33
2022-11-02T13:49:17.968Z,16.86
2022-11-02T13:51:49.847Z,16.74
2022-11-02T13:54:22.314Z,15.91
2022-11-02T13:56:53.967Z,16.13
2022-11-02T13:59:24.878Z,16.61
2022-11-02T14:01:56.286Z,16.91
2022-11-02T14:04:25.597Z,16.63
2022-11-02T14:06:58.001Z,16.79
2022-11-02T14:09:31.598Z,16.49
2022-11-02T14:12:28.291Z,16.55
2022-11-02T14:15:44.995Z,16.53
2022-11-02T14:18:31.335Z,16.41
2022-11-02T14:21:00.094Z,16.36
2022-11-02T14:23:39.569Z,16.44
2022-11-02T14:26:33.113Z,16.02
2022-11-02T14:29:04.460Z,16.11
2022-11-02T14:32:00.322Z,15.65
2022-11-02T14:34:51.144Z,15.76
2022-11-02T14:37:49.193Z,15.86
2022-11-02T14:40:31.376Z,15.88
2022-11-02T14:43:30.278Z,15.92
2022-11-02T14:46:09.761Z,16.12
2022-11-02T14:48:47.637Z,15.73
2022-11-02T14:51:21.452Z,15.87
2022-11-02T14:53:55.641Z,15.58
2022-11-02T14:56:24.961Z,15.65
2022-11-02T14:58:56.835Z,15.74
2022-11-02T15:01:25.355Z,15.51
2022-11-02T15:03:53.652Z,15.48
2022-11-02T15:06:27.030Z,15.46
2022-11-02T15:08:57.607Z,15.66
2022-11-02T15:11:57.966Z,15.48
2022-11-02T15:14:57.104Z,15.16
2022-11-02T15:17:52.526Z,15.44
2022-11-02T15:20:30.767Z,15.46
2022-11-02T15:23:30.983Z,15.32
2022-11-02T15:26:00.366Z,14.68
2022-11-02T15:28:33.702Z,15.10
2022-11-02T15:31:05.246Z,15.01
2022-11-02T15:33:38.333Z,15.13
2022-11-02T15:36:09.898Z,14.98
2022-11-02T15:38:40.409Z,14.85
2022-11-02T15:41:29.977Z,14.29
2022-11-02T15:44:18.959Z,14.35
2022-11-02T15:47:00.123Z,14.09
2022-11-02T15:49:46.660Z,14.16
2022-11-02T15:52:22.670Z,13.92
2022-11-02T15:55:12.650Z,13.58
2022-11-02T15:57:49.686Z,13.61
2022-11-02T16:00:30.000Z,13.46
2022-11-02T16:03:02.737Z,13.44
2022-11-02T16:05:33.425Z,12.85
2022-11-02T16:08:10.740Z,12.46
2022-11-02T16:10:40.540Z,12.40
2022-11-02T16:13:17.903Z,12.71
2022-11-02T16:15:46.647Z,12.82
2022-11-02T16:18:25.682Z,12.91
2022-11-02T16:20:57.051Z,12.80
2022-11-02T16:23:27.597Z,12.72
2022-11-02T16:25:57.598Z,12.38
2022-11-02T16:28:27.378Z,12.49
2022-11-02T16:31:06.604Z,12.25
2022-11-02T16:33:42.644Z,12.44
2022-11-02T16:36:12.313Z,12.20
2022-11-02T16:38:46.546Z,11.81
2022-11-02T16:41:17.289Z,11.14
2022-11-02T16:43:47.225Z,11.18
2022-11-02T16:46:17.824Z,11.23
2022-11-02T16:49:18.628Z,11.61
2022-11-02T16:51:51.313Z,11.49
2022-11-02T16:54:30.905Z,11.24
2022-11-02T16:57:08.623Z,10.85
2022-11-02T16:59:39.971Z,10.89
2022-11-02T17:02:14.231Z,10.87
2022-11-02T17:04:44.015Z,10.69
2022-11-02T17:07:16.359Z,10.49
2022-11-02T17:09:44.480Z,10.39
2022-11-02T17:12:17.341Z,10.52
2022-11-02T17:14:48.426Z,10.76
2022-11-02T17:17:38.739Z,10.04
2022-11-02T17:20:15.970Z,10.22
2022-11-02T17:22:52.877Z,10.09
2022-11-02T17:25:22.766Z,10.19
2022-11-02T17:27:53.756Z,10.03
2022-11-02T17:30:46.294Z,9.83
2022-11-02T17:33:24.864Z,9.61
2022-11-02T17:35:57.507Z,9.67
2022-11-02T17:38:28.019Z,10.08
2022-11-02T17:40:56.334Z,10.04
2022-11-02T17:43:24.725Z,10.05
2022-11-02T17:45:57.160Z,10.02
2022-11-02T17:48:25.731Z,9.61
2022-11-02T17:50:55.698Z,9.47
2022-11-02T17:53:24.831Z,9.82
2022-11-02T17:55:54.490Z,9.78
2022-11-02T17:58:22.663Z,9.68
2022-11-02T18:00:54.708Z,9.69
2022-11-02T18:03:30.003Z,9.67
2022-11-02T18:06:00.225Z,9.72
2022-11-02T18:08:29.247Z,9.43
2022-11-02T18:10:57.759Z,9.58
2022-11-02T18:13:26.176Z,9.21
2022-11-02T18:15:55.887Z,9.33
2022-11-02T18:18:24.094Z,9.46
2022-11-02T18:20:52.212Z,9.53
2022-11-02T18:23:20.596Z,9.22
2022-11-02T18:25:48.836Z,9.29
2022-11-02T18:28:17.100Z,9.15
2022-11-02T18:30:45.606Z,9.22
2022-11-02T18:33:14.956Z,8.84
2022-11-02T18:35:44.325Z,8.70
2022-11-02T18:38:12.902Z,8.93
2022-11-02T18:40:41.102Z,8.89
2022-11-02T18:43:09.532Z,8.83
2022-11-02T18:45:37.908Z,8.72
2022-11-02T18:48:06.834Z,8.50
2022-11-02T18:50:36.659Z,8.56
2022-11-02T18:53:04.906Z,8.74
2022-11-02T18:55:32.813Z,8.73
2022-11-02T18:58:00.770Z,8.75
2022-11-02T19:00:28.668Z,8.65
2022-11-02T19:02:56.624Z,8.63
2022-11-02T19:05:42.668Z,8.88
2022-11-02T19:08:41.217Z,8.46
2022-11-02T19:11:09.499Z,8.56
2022-11-02T19:13:37.702Z,8.45
2022-11-02T19:16:06.303Z,8.68
2022-11-02T19:18:34.470Z,8.39
2022-11-02T19:21:02.398Z,8.35
2022-11-02T19:23:31.563Z,8.36
2022-11-02T19:25:59.448Z,7.93
2022-11-02T19:28:27.286Z,8.15
2022-11-02T19:30:55.228Z,8.02
2022-11-02T19:33:23.391Z,8.20
2022-11-02T19:35:57.637Z,8.03
2022-11-02T19:38:25.609Z,8.35
2022-11-02T19:41:03.392Z,8.40
2022-11-02T19:43:31.464Z,8.03
2022-11-02T19:46:05.386Z,7.62
2022-11-02T19:48:35.455Z,7.74
2022-11-02T19:51:08.514Z,7.45
2022-11-02T19:53:37.072Z,7.70
2022-11-02T19:56:10.281Z,7.75
2022-11-02T19:58:39.420Z,7.74
2022-11-02T20:01:09.166Z,7.97
2022-11-02T20:03:37.735Z,8.21
2022-11-02T20:06:07.556Z,8.17
2022-11-02T20:08:36.029Z,7.91
2022-11-02T20:11:06.894Z,7.30
2022-11-02T20:13:35.839Z,7.45
2022-11-02T20:16:05.016Z,7.42
2022-11-02T20:18:35.198Z,7.54
2022-11-02T20:21:04.884Z,7.32
2022-11-02T20:23:33.417Z,7.52
2022-11-02T20:26:03.122Z,7.59
2022-11-02T20:28:32.818Z,7.38
2022-11-02T20:31:00.819Z,7.37
2022-11-02T20:33:28.715Z,7.42
2022-11-02T20:35:56.549Z,7.49
2022-11-02T20:38:24.408Z,7.37
2022-11-02T20:40:52.227Z,7.43
2022-11-02T20:43:20.674Z,7.47
2022-11-02T20:45:50.187Z,7.07
2022-11-02T20:48:18.024Z,6.97
2022-11-02T20:50:46.007Z,7.35
2022-11-02T20:53:13.811Z,7.38
2022-11-02T20:55:43.135Z,7.12
2022-11-02T20:58:10.909Z,7.02
2022-11-02T21:00:38.735Z,7.00
2022-11-02T21:03:08.147Z,6.90
2022-11-02T21:05:36.190Z,6.57
2022-11-02T21:08:04.024Z,6.30
2022-11-02T21:10:31.830Z,6.07
2022-11-02T21:13:17.491Z,6.54
2022-11-02T21:15:48.017Z,6.04
2022-11-02T21:18:20.424Z,5.80
2022-11-02T21:20:48.565Z,6.07
2022-11-02T21:23:16.426Z,6.34
2022-11-02T21:25:44.311Z,6.43
2022-11-02T21:28:12.607Z,5.89
2022-11-02T21:30:40.549Z,5.70
2022-11-02T21:33:08.947Z,6.20
2022-11-02T21:35:38.883Z,6.36
2022-11-02T21:38:07.850Z,6.46
2022-11-02T21:40:35.941Z,6.29
2022-11-02T21:43:04.184Z,6.04
2022-11-02T21:45:37.607Z,5.38
2022-11-02T21:48:06.204Z,5.44
2022-11-02T21:50:34.164Z,5.20
2022-11-02T21:53:04.183Z,5.58
2022-11-02T21:55:32.609Z,5.79
2022-11-02T21:58:00.680Z,5.68
2022-11-02T22:00:48.644Z,5.70
2022-11-02T22:03:15.516Z,5.32
2022-11-02T22:05:59.529Z,5.35
2022-11-02T22:08:40.860Z,5.64
2022-11-02T22:11:11.349Z,5.55
2022-11-02T22:13:39.572Z,5.89
2022-11-02T22:16:08.902Z,5.31
2022-11-02T22:18:36.772Z,5.32
2022-11-02T22:21:04.914Z,5.82
2022-11-02T22:23:34.149Z,5.43
2022-11-02T22:26:05.767Z,5.63
2022-11-02T22:28:35.832Z,5.42
2022-11-02T22:31:08.149Z,5.49
2022-11-02T22:33:39.323Z,5.50
2022-11-02T22:36:09.432Z,5.48
2022-11-02T22:38:53.870Z,5.60
2022-11-02T22:41:24.557Z,5.79
2022-11-02T22:43:57.542Z,5.60
2022-11-02T22:46:30.127Z,5.70
2022-11-02T22:49:00.179Z,5.74
2022-11-02T22:51:29.910Z,5.81
2022-11-02T22:54:01.742Z,5.70
2022-11-02T22:56:29.692Z,5.83
2022-11-02T22:58:58.546Z,5.62
2022-11-02T23:01:28.404Z,5.54
2022-11-02T23:03:56.976Z,5.71
2022-11-02T23:06:25.975Z,5.58
2022-11-02T23:08:55.721Z,5.52
2022-11-02T23:11:27.206Z,5.48
2022-11-02T23:13:57.581Z,5.56
2022-11-02T23:16:26.993Z,5.62
2022-11-02T23:19:20.630Z,5.75
2022-11-02T23:22:08.766Z,5.62
2022-11-02T23:24:54.252Z,5.77
2022-11-02T23:27:23.805Z,5.90
2022-11-02T23:30:09.358Z,5.74
2022-11-02T23:32:37.613Z,5.79
2022-11-02T23:35:24.039Z,5.61
2022-11-02T23:38:02.147Z,5.66
2022-11-02T23:40:30.079Z,5.71
2022-11-02T23:42:59.596Z,5.42
2022-11-02T23:45:27.425Z,5.26
2022-11-02T23:48:00.015Z,5.49
2022-11-02T23:50:48.302Z,5.65
2022-11-02T23:53:36.011Z,5.71
2022-11-02T23:56:22.272Z,5.75
2022-11-02T23:59:06.691Z,5.66
